KDNV/DNV METAR and TAF weather

Enter ICAO airport designator
Station Type Date Time Source
KDNV METAR 2022/08/12 13:55 UTC NOAA

KDNV 121355Z AUTO 11004KT 10SM CLR 20/16 A3024 RMK AO2 T02010158


Station Type Date Time Source
KDNV Decoded METAR 2022/08/12 13:55 UTC NOAA

Danville, Vermilion County Airport, IL, United States (KDNV) 40-11-58N 087-35-44W
Aug 12, 2022 - 09:55 AM EDT / 2022.08.12 1355 UTC
Wind: from the ESE (110 degrees) at 5 MPH (4 KT):0
Visibility: 10 mile(s):0
Sky conditions: clear
Temperature: 68.2 F (20.1 C)
Dew Point: 60.4 F (15.8 C)
Relative Humidity: 76%
Pressure (altimeter): 30.24 in. Hg (1024 hPa)
ob: KDNV 121355Z AUTO 11004KT 10SM CLR 20/16 A3024 RMK AO2 T02010158
cycle: 14

Station Type Date Time Source
KDNV TAF UTC NOAA

Error!

Example: see airport list